sensor_id;sensor_type;location;lat;lon;timestamp;P1;durP1;ratioP1;P2;durP2;ratioP2
13795;SDS011;40911;51.552;9.874;2023-04-05T00:00:27;8.50;;;6.32;;
13795;SDS011;40911;51.552;9.874;2023-04-05T00:02:49;8.07;;;5.70;;
13795;SDS011;40911;51.552;9.874;2023-04-05T00:05:11;8.60;;;5.30;;
13795;SDS011;40911;51.552;9.874;2023-04-05T00:07:33;6.03;;;5.35;;
13795;SDS011;40911;51.552;9.874;2023-04-05T00:09:55;7.22;;;5.30;;
13795;SDS011;40911;51.552;9.874;2023-04-05T00:12:18;5.95;;;5.35;;
13795;SDS011;40911;51.552;9.874;2023-04-05T00:14:40;7.50;;;5.07;;
13795;SDS011;40911;51.552;9.874;2023-04-05T00:17:01;6.85;;;5.75;;
13795;SDS011;40911;51.552;9.874;2023-04-05T00:21:44;6.45;;;5.10;;
13795;SDS011;40911;51.552;9.874;2023-04-05T00:24:06;7.57;;;5.53;;
13795;SDS011;40911;51.552;9.874;2023-04-05T00:26:34;6.53;;;5.40;;
13795;SDS011;40911;51.552;9.874;2023-04-05T00:28:57;5.55;;;5.03;;
13795;SDS011;40911;51.552;9.874;2023-04-05T00:31:19;7.60;;;5.38;;
13795;SDS011;40911;51.552;9.874;2023-04-05T00:33:40;6.07;;;5.15;;
13795;SDS011;40911;51.552;9.874;2023-04-05T00:36:09;6.68;;;5.60;;
13795;SDS011;40911;51.552;9.874;2023-04-05T00:38:31;6.22;;;5.25;;
13795;SDS011;40911;51.552;9.874;2023-04-05T00:40:52;5.90;;;5.03;;
13795;SDS011;40911;51.552;9.874;2023-04-05T00:43:14;7.30;;;5.80;;
13795;SDS011;40911;51.552;9.874;2023-04-05T00:45:37;7.88;;;5.32;;
13795;SDS011;40911;51.552;9.874;2023-04-05T00:47:59;6.82;;;5.40;;
13795;SDS011;40911;51.552;9.874;2023-04-05T00:50:20;8.02;;;5.82;;
13795;SDS011;40911;51.552;9.874;2023-04-05T00:52:42;6.65;;;5.93;;
13795;SDS011;40911;51.552;9.874;2023-04-05T00:55:05;7.47;;;6.20;;
13795;SDS011;40911;51.552;9.874;2023-04-05T00:57:28;8.75;;;5.93;;
13795;SDS011;40911;51.552;9.874;2023-04-05T00:59:50;6.43;;;5.75;;
13795;SDS011;40911;51.552;9.874;2023-04-05T01:02:16;8.07;;;5.60;;
13795;SDS011;40911;51.552;9.874;2023-04-05T01:04:41;11.05;;;5.72;;
13795;SDS011;40911;51.552;9.874;2023-04-05T01:07:11;8.43;;;5.40;;
13795;SDS011;40911;51.552;9.874;2023-04-05T01:09:40;10.93;;;5.70;;
13795;SDS011;40911;51.552;9.874;2023-04-05T01:12:08;7.18;;;5.80;;
13795;SDS011;40911;51.552;9.874;2023-04-05T01:14:38;6.30;;;5.32;;
13795;SDS011;40911;51.552;9.874;2023-04-05T01:17:04;6.50;;;5.72;;
13795;SDS011;40911;51.552;9.874;2023-04-05T01:19:30;6.50;;;5.50;;
13795;SDS011;40911;51.552;9.874;2023-04-05T01:22:02;6.80;;;5.10;;
13795;SDS011;40911;51.552;9.874;2023-04-05T01:24:37;7.88;;;5.93;;
13795;SDS011;40911;51.552;9.874;2023-04-05T01:27:17;6.93;;;6.22;;
13795;SDS011;40911;51.552;9.874;2023-04-05T01:29:54;7.63;;;5.25;;
13795;SDS011;40911;51.552;9.874;2023-04-05T01:32:34;8.20;;;5.80;;
13795;SDS011;40911;51.552;9.874;2023-04-05T01:35:08;6.28;;;5.22;;
13795;SDS011;40911;51.552;9.874;2023-04-05T01:37:36;6.93;;;5.50;;
13795;SDS011;40911;51.552;9.874;2023-04-05T01:40:00;8.75;;;5.85;;
13795;SDS011;40911;51.552;9.874;2023-04-05T01:42:31;5.95;;;5.43;;
13795;SDS011;40911;51.552;9.874;2023-04-05T01:44:55;7.82;;;5.53;;
13795;SDS011;40911;51.552;9.874;2023-04-05T01:47:17;7.15;;;5.45;;
13795;SDS011;40911;51.552;9.874;2023-04-05T01:52:00;7.22;;;6.00;;
13795;SDS011;40911;51.552;9.874;2023-04-05T01:54:22;11.88;;;6.20;;
13795;SDS011;40911;51.552;9.874;2023-04-05T01:56:43;6.60;;;6.00;;
13795;SDS011;40911;51.552;9.874;2023-04-05T02:01:28;9.00;;;6.40;;
13795;SDS011;40911;51.552;9.874;2023-04-05T02:03:50;6.60;;;6.00;;
13795;SDS011;40911;51.552;9.874;2023-04-05T02:06:11;6.47;;;5.75;;
13795;SDS011;40911;51.552;9.874;2023-04-05T02:08:33;8.35;;;6.35;;
13795;SDS011;40911;51.552;9.874;2023-04-05T02:10:54;6.55;;;5.78;;
13795;SDS011;40911;51.552;9.874;2023-04-05T02:13:16;7.88;;;5.82;;
13795;SDS011;40911;51.552;9.874;2023-04-05T02:15:37;7.40;;;6.10;;
13795;SDS011;40911;51.552;9.874;2023-04-05T02:18:00;7.47;;;6.03;;
13795;SDS011;40911;51.552;9.874;2023-04-05T02:20:23;7.03;;;6.03;;
13795;SDS011;40911;51.552;9.874;2023-04-05T02:22:45;8.52;;;5.78;;
13795;SDS011;40911;51.552;9.874;2023-04-05T02:25:07;8.40;;;6.30;;
13795;SDS011;40911;51.552;9.874;2023-04-05T02:27:29;7.60;;;6.10;;
13795;SDS011;40911;51.552;9.874;2023-04-05T02:29:52;9.93;;;5.55;;
13795;SDS011;40911;51.552;9.874;2023-04-05T02:32:14;9.43;;;5.88;;
13795;SDS011;40911;51.552;9.874;2023-04-05T02:34:37;6.45;;;5.72;;
13795;SDS011;40911;51.552;9.874;2023-04-05T02:37:00;6.40;;;5.63;;
13795;SDS011;40911;51.552;9.874;2023-04-05T02:39:21;8.75;;;6.35;;
13795;SDS011;40911;51.552;9.874;2023-04-05T02:41:43;10.90;;;6.97;;
13795;SDS011;40911;51.552;9.874;2023-04-05T02:46:26;6.55;;;5.95;;
13795;SDS011;40911;51.552;9.874;2023-04-05T02:48:48;6.53;;;5.90;;
13795;SDS011;40911;51.552;9.874;2023-04-05T02:51:11;8.82;;;7.05;;
13795;SDS011;40911;51.552;9.874;2023-04-05T02:53:32;6.93;;;5.90;;
13795;SDS011;40911;51.552;9.874;2023-04-05T02:55:55;10.10;;;6.15;;
13795;SDS011;40911;51.552;9.874;2023-04-05T02:58:18;7.32;;;6.05;;
13795;SDS011;40911;51.552;9.874;2023-04-05T03:00:40;6.45;;;5.78;;
13795;SDS011;40911;51.552;9.874;2023-04-05T03:03:02;7.00;;;5.88;;
13795;SDS011;40911;51.552;9.874;2023-04-05T03:05:23;7.10;;;5.95;;
13795;SDS011;40911;51.552;9.874;2023-04-05T03:07:46;8.00;;;6.15;;
13795;SDS011;40911;51.552;9.874;2023-04-05T03:10:10;8.30;;;6.30;;
13795;SDS011;40911;51.552;9.874;2023-04-05T03:12:32;11.95;;;6.30;;
13795;SDS011;40911;51.552;9.874;2023-04-05T03:14:54;8.63;;;6.18;;
13795;SDS011;40911;51.552;9.874;2023-04-05T03:17:15;8.57;;;6.30;;
13795;SDS011;40911;51.552;9.874;2023-04-05T03:19:37;8.82;;;6.32;;
13795;SDS011;40911;51.552;9.874;2023-04-05T03:21:59;7.35;;;6.53;;
13795;SDS011;40911;51.552;9.874;2023-04-05T03:24:22;9.27;;;6.90;;
13795;SDS011;40911;51.552;9.874;2023-04-05T03:26:44;7.95;;;6.22;;
13795;SDS011;40911;51.552;9.874;2023-04-05T03:29:06;10.77;;;6.82;;
13795;SDS011;40911;51.552;9.874;2023-04-05T03:31:28;9.40;;;6.57;;
13795;SDS011;40911;51.552;9.874;2023-04-05T03:33:49;11.02;;;6.68;;
13795;SDS011;40911;51.552;9.874;2023-04-05T03:36:11;7.13;;;6.43;;
13795;SDS011;40911;51.552;9.874;2023-04-05T03:38:35;6.63;;;6.03;;
13795;SDS011;40911;51.552;9.874;2023-04-05T03:40:58;8.45;;;6.28;;
13795;SDS011;40911;51.552;9.874;2023-04-05T03:43:20;9.93;;;6.40;;
13795;SDS011;40911;51.552;9.874;2023-04-05T03:45:42;8.77;;;6.90;;
13795;SDS011;40911;51.552;9.874;2023-04-05T03:48:04;7.57;;;6.65;;
13795;SDS011;40911;51.552;9.874;2023-04-05T03:50:25;6.80;;;6.20;;
13795;SDS011;40911;51.552;9.874;2023-04-05T03:52:47;7.65;;;6.40;;
13795;SDS011;40911;51.552;9.874;2023-04-05T03:57:32;8.70;;;6.70;;
13795;SDS011;40911;51.552;9.874;2023-04-05T03:59:53;7.45;;;6.75;;
13795;SDS011;40911;51.552;9.874;2023-04-05T04:02:15;8.63;;;7.38;;
13795;SDS011;40911;51.552;9.874;2023-04-05T04:04:36;10.25;;;7.00;;
13795;SDS011;40911;51.552;9.874;2023-04-05T04:06:58;9.98;;;7.28;;
13795;SDS011;40911;51.552;9.874;2023-04-05T04:09:19;8.90;;;6.60;;
13795;SDS011;40911;51.552;9.874;2023-04-05T04:11:43;7.22;;;6.40;;
13795;SDS011;40911;51.552;9.874;2023-04-05T04:14:06;9.50;;;6.63;;
13795;SDS011;40911;51.552;9.874;2023-04-05T04:16:28;7.65;;;6.90;;
13795;SDS011;40911;51.552;9.874;2023-04-05T04:21:13;8.23;;;6.53;;
13795;SDS011;40911;51.552;9.874;2023-04-05T04:23:36;13.02;;;7.50;;
13795;SDS011;40911;51.552;9.874;2023-04-05T04:25:57;7.60;;;6.90;;
13795;SDS011;40911;51.552;9.874;2023-04-05T04:28:20;9.63;;;7.03;;
13795;SDS011;40911;51.552;9.874;2023-04-05T04:30:45;8.23;;;7.43;;
13795;SDS011;40911;51.552;9.874;2023-04-05T04:33:07;9.95;;;7.53;;
13795;SDS011;40911;51.552;9.874;2023-04-05T04:35:29;9.50;;;6.93;;
13795;SDS011;40911;51.552;9.874;2023-04-05T04:37:56;8.40;;;7.60;;
13795;SDS011;40911;51.552;9.874;2023-04-05T04:40:19;12.65;;;7.00;;
13795;SDS011;40911;51.552;9.874;2023-04-05T04:42:42;7.68;;;6.97;;
13795;SDS011;40911;51.552;9.874;2023-04-05T04:45:06;8.68;;;7.15;;
13795;SDS011;40911;51.552;9.874;2023-04-05T04:47:38;9.68;;;7.68;;
13795;SDS011;40911;51.552;9.874;2023-04-05T04:50:01;8.52;;;7.68;;
13795;SDS011;40911;51.552;9.874;2023-04-05T04:52:23;8.25;;;7.43;;
13795;SDS011;40911;51.552;9.874;2023-04-05T04:54:45;9.90;;;7.28;;
13795;SDS011;40911;51.552;9.874;2023-04-05T04:57:06;10.40;;;7.88;;
13795;SDS011;40911;51.552;9.874;2023-04-05T04:59:28;10.18;;;7.57;;
13795;SDS011;40911;51.552;9.874;2023-04-05T05:04:12;11.98;;;8.48;;
13795;SDS011;40911;51.552;9.874;2023-04-05T05:06:34;9.07;;;7.78;;
13795;SDS011;40911;51.552;9.874;2023-04-05T05:08:56;12.52;;;8.48;;
13795;SDS011;40911;51.552;9.874;2023-04-05T05:11:18;10.20;;;8.18;;
13795;SDS011;40911;51.552;9.874;2023-04-05T05:16:01;11.27;;;8.23;;
13795;SDS011;40911;51.552;9.874;2023-04-05T05:18:23;14.38;;;8.95;;
13795;SDS011;40911;51.552;9.874;2023-04-05T05:20:48;12.85;;;8.45;;
13795;SDS011;40911;51.552;9.874;2023-04-05T05:23:10;9.25;;;8.35;;
13795;SDS011;40911;51.552;9.874;2023-04-05T05:25:32;9.48;;;8.50;;
13795;SDS011;40911;51.552;9.874;2023-04-05T05:27:53;13.18;;;9.10;;
13795;SDS011;40911;51.552;9.874;2023-04-05T05:30:15;13.55;;;8.88;;
13795;SDS011;40911;51.552;9.874;2023-04-05T05:34:58;9.50;;;8.23;;
13795;SDS011;40911;51.552;9.874;2023-04-05T05:37:28;10.07;;;8.38;;
13795;SDS011;40911;51.552;9.874;2023-04-05T05:39:50;9.32;;;8.07;;
13795;SDS011;40911;51.552;9.874;2023-04-05T05:42:11;13.75;;;8.35;;
13795;SDS011;40911;51.552;9.874;2023-04-05T05:44:33;9.60;;;8.45;;
13795;SDS011;40911;51.552;9.874;2023-04-05T05:46:55;11.85;;;7.85;;
13795;SDS011;40911;51.552;9.874;2023-04-05T05:49:16;10.90;;;8.40;;
13795;SDS011;40911;51.552;9.874;2023-04-05T05:51:38;14.05;;;8.07;;
13795;SDS011;40911;51.552;9.874;2023-04-05T05:54:01;10.98;;;7.93;;
13795;SDS011;40911;51.552;9.874;2023-04-05T05:56:22;9.50;;;8.20;;
13795;SDS011;40911;51.552;9.874;2023-04-05T05:58:44;10.65;;;8.07;;
13795;SDS011;40911;51.552;9.874;2023-04-05T06:03:27;9.98;;;7.85;;
13795;SDS011;40911;51.552;9.874;2023-04-05T06:05:50;9.93;;;7.63;;
13795;SDS011;40911;51.552;9.874;2023-04-05T06:08:12;13.27;;;8.20;;
13795;SDS011;40911;51.552;9.874;2023-04-05T06:10:36;13.98;;;8.57;;
13795;SDS011;40911;51.552;9.874;2023-04-05T06:12:57;11.73;;;8.05;;
13795;SDS011;40911;51.552;9.874;2023-04-05T06:15:19;13.93;;;9.60;;
13795;SDS011;40911;51.552;9.874;2023-04-05T06:17:41;11.77;;;9.90;;
13795;SDS011;40911;51.552;9.874;2023-04-05T06:20:02;15.82;;;9.32;;
13795;SDS011;40911;51.552;9.874;2023-04-05T06:22:25;12.40;;;9.35;;
13795;SDS011;40911;51.552;9.874;2023-04-05T06:24:46;14.63;;;9.82;;
13795;SDS011;40911;51.552;9.874;2023-04-05T06:27:09;14.85;;;9.68;;
13795;SDS011;40911;51.552;9.874;2023-04-05T06:29:33;15.05;;;9.80;;
13795;SDS011;40911;51.552;9.874;2023-04-05T06:31:55;14.60;;;10.27;;
13795;SDS011;40911;51.552;9.874;2023-04-05T06:34:17;14.60;;;10.13;;
13795;SDS011;40911;51.552;9.874;2023-04-05T06:36:38;13.70;;;9.48;;
13795;SDS011;40911;51.552;9.874;2023-04-05T06:39:00;10.88;;;9.35;;
13795;SDS011;40911;51.552;9.874;2023-04-05T06:41:22;12.95;;;9.90;;
13795;SDS011;40911;51.552;9.874;2023-04-05T06:43:45;13.75;;;9.95;;
13795;SDS011;40911;51.552;9.874;2023-04-05T06:46:06;13.02;;;9.73;;
13795;SDS011;40911;51.552;9.874;2023-04-05T06:48:30;13.18;;;9.88;;
13795;SDS011;40911;51.552;9.874;2023-04-05T06:50:56;14.05;;;8.95;;
13795;SDS011;40911;51.552;9.874;2023-04-05T06:53:24;13.50;;;9.18;;
13795;SDS011;40911;51.552;9.874;2023-04-05T06:55:47;14.75;;;9.10;;
13795;SDS011;40911;51.552;9.874;2023-04-05T06:58:09;9.68;;;8.40;;
13795;SDS011;40911;51.552;9.874;2023-04-05T07:00:32;14.63;;;9.05;;
13795;SDS011;40911;51.552;9.874;2023-04-05T07:02:54;11.32;;;8.32;;
13795;SDS011;40911;51.552;9.874;2023-04-05T07:05:15;11.20;;;8.25;;
13795;SDS011;40911;51.552;9.874;2023-04-05T07:07:37;11.68;;;7.60;;
13795;SDS011;40911;51.552;9.874;2023-04-05T07:10:00;15.05;;;8.35;;
13795;SDS011;40911;51.552;9.874;2023-04-05T07:14:43;9.38;;;8.27;;
13795;SDS011;40911;51.552;9.874;2023-04-05T07:17:06;10.93;;;7.63;;
13795;SDS011;40911;51.552;9.874;2023-04-05T07:19:27;13.98;;;8.15;;
13795;SDS011;40911;51.552;9.874;2023-04-05T07:21:49;14.15;;;8.45;;
13795;SDS011;40911;51.552;9.874;2023-04-05T07:24:11;12.10;;;8.45;;
13795;SDS011;40911;51.552;9.874;2023-04-05T07:26:32;11.98;;;7.38;;
13795;SDS011;40911;51.552;9.874;2023-04-05T07:28:56;11.82;;;7.63;;
13795;SDS011;40911;51.552;9.874;2023-04-05T07:31:17;12.32;;;7.90;;
13795;SDS011;40911;51.552;9.874;2023-04-05T07:33:40;10.57;;;7.90;;
13795;SDS011;40911;51.552;9.874;2023-04-05T07:36:02;9.30;;;7.32;;
13795;SDS011;40911;51.552;9.874;2023-04-05T07:38:24;11.32;;;6.90;;
13795;SDS011;40911;51.552;9.874;2023-04-05T07:40:48;9.05;;;6.78;;
13795;SDS011;40911;51.552;9.874;2023-04-05T07:43:09;9.05;;;6.70;;
13795;SDS011;40911;51.552;9.874;2023-04-05T07:45:31;7.22;;;6.53;;
13795;SDS011;40911;51.552;9.874;2023-04-05T07:50:19;9.57;;;6.63;;
13795;SDS011;40911;51.552;9.874;2023-04-05T07:52:40;10.55;;;6.50;;
13795;SDS011;40911;51.552;9.874;2023-04-05T07:55:02;8.73;;;6.40;;
13795;SDS011;40911;51.552;9.874;2023-04-05T07:57:24;8.82;;;6.72;;
13795;SDS011;40911;51.552;9.874;2023-04-05T07:59:46;8.48;;;6.38;;
13795;SDS011;40911;51.552;9.874;2023-04-05T08:02:09;9.38;;;6.30;;
13795;SDS011;40911;51.552;9.874;2023-04-05T08:06:54;8.40;;;6.05;;
13795;SDS011;40911;51.552;9.874;2023-04-05T08:09:16;9.57;;;6.95;;
13795;SDS011;40911;51.552;9.874;2023-04-05T08:11:37;8.30;;;6.22;;
13795;SDS011;40911;51.552;9.874;2023-04-05T08:16:20;7.32;;;6.30;;
13795;SDS011;40911;51.552;9.874;2023-04-05T08:18:42;12.18;;;6.43;;
13795;SDS011;40911;51.552;9.874;2023-04-05T08:21:04;8.13;;;6.57;;
13795;SDS011;40911;51.552;9.874;2023-04-05T08:25:49;7.80;;;6.20;;
13795;SDS011;40911;51.552;9.874;2023-04-05T08:28:11;7.78;;;6.32;;
13795;SDS011;40911;51.552;9.874;2023-04-05T08:30:33;7.68;;;5.88;;
13795;SDS011;40911;51.552;9.874;2023-04-05T08:32:54;9.48;;;6.43;;
13795;SDS011;40911;51.552;9.874;2023-04-05T08:35:16;8.48;;;5.90;;
13795;SDS011;40911;51.552;9.874;2023-04-05T08:37:38;6.78;;;6.05;;
13795;SDS011;40911;51.552;9.874;2023-04-05T08:40:01;8.73;;;6.40;;
13795;SDS011;40911;51.552;9.874;2023-04-05T08:42:25;12.32;;;6.95;;
13795;SDS011;40911;51.552;9.874;2023-04-05T08:44:50;6.88;;;6.20;;
13795;SDS011;40911;51.552;9.874;2023-04-05T08:47:12;10.00;;;6.10;;
13795;SDS011;40911;51.552;9.874;2023-04-05T08:49:41;10.13;;;6.18;;
13795;SDS011;40911;51.552;9.874;2023-04-05T08:52:03;11.77;;;7.07;;
13795;SDS011;40911;51.552;9.874;2023-04-05T08:54:26;8.75;;;6.45;;
13795;SDS011;40911;51.552;9.874;2023-04-05T08:56:49;9.40;;;6.90;;
13795;SDS011;40911;51.552;9.874;2023-04-05T08:59:14;9.23;;;5.97;;
13795;SDS011;40911;51.552;9.874;2023-04-05T09:01:38;7.55;;;5.70;;
13795;SDS011;40911;51.552;9.874;2023-04-05T09:04:04;7.63;;;5.32;;
13795;SDS011;40911;51.552;9.874;2023-04-05T09:06:27;9.38;;;6.13;;
13795;SDS011;40911;51.552;9.874;2023-04-05T09:11:10;7.85;;;5.32;;
13795;SDS011;40911;51.552;9.874;2023-04-05T09:13:33;8.98;;;5.13;;
13795;SDS011;40911;51.552;9.874;2023-04-05T09:15:55;9.38;;;5.53;;
13795;SDS011;40911;51.552;9.874;2023-04-05T09:18:17;7.13;;;5.88;;
13795;SDS011;40911;51.552;9.874;2023-04-05T09:20:38;6.78;;;5.53;;
13795;SDS011;40911;51.552;9.874;2023-04-05T09:23:01;6.13;;;5.53;;
13795;SDS011;40911;51.552;9.874;2023-04-05T09:25:32;8.48;;;5.70;;
13795;SDS011;40911;51.552;9.874;2023-04-05T09:27:57;8.43;;;5.75;;
13795;SDS011;40911;51.552;9.874;2023-04-05T09:30:21;8.85;;;5.68;;
13795;SDS011;40911;51.552;9.874;2023-04-05T09:32:45;6.55;;;5.30;;
13795;SDS011;40911;51.552;9.874;2023-04-05T09:35:07;8.18;;;5.53;;
13795;SDS011;40911;51.552;9.874;2023-04-05T09:37:46;7.47;;;5.13;;
13795;SDS011;40911;51.552;9.874;2023-04-05T09:40:12;5.65;;;4.95;;
13795;SDS011;40911;51.552;9.874;2023-04-05T09:42:42;5.07;;;4.60;;
13795;SDS011;40911;51.552;9.874;2023-04-05T09:45:05;6.55;;;4.80;;
13795;SDS011;40911;51.552;9.874;2023-04-05T09:47:30;6.55;;;4.75;;
13795;SDS011;40911;51.552;9.874;2023-04-05T09:49:54;5.13;;;4.63;;
13795;SDS011;40911;51.552;9.874;2023-04-05T09:54:41;5.60;;;4.40;;
13795;SDS011;40911;51.552;9.874;2023-04-05T09:57:02;4.50;;;3.92;;
13795;SDS011;40911;51.552;9.874;2023-04-05T09:59:25;5.53;;;3.95;;
13795;SDS011;40911;51.552;9.874;2023-04-05T10:01:50;5.03;;;4.03;;
13795;SDS011;40911;51.552;9.874;2023-04-05T10:04:13;6.05;;;4.63;;
13795;SDS011;40911;51.552;9.874;2023-04-05T10:06:35;4.95;;;4.47;;
13795;SDS011;40911;51.552;9.874;2023-04-05T10:08:58;6.15;;;4.63;;
13795;SDS011;40911;51.552;9.874;2023-04-05T10:11:20;6.25;;;4.65;;
13795;SDS011;40911;51.552;9.874;2023-04-05T10:13:43;4.80;;;4.40;;
13795;SDS011;40911;51.552;9.874;2023-04-05T10:16:06;6.65;;;4.38;;
13795;SDS011;40911;51.552;9.874;2023-04-05T10:18:33;5.32;;;4.60;;
13795;SDS011;40911;51.552;9.874;2023-04-05T10:21:03;4.88;;;4.47;;
13795;SDS011;40911;51.552;9.874;2023-04-05T10:23:30;6.45;;;4.25;;
13795;SDS011;40911;51.552;9.874;2023-04-05T10:25:56;4.53;;;3.95;;
13795;SDS011;40911;51.552;9.874;2023-04-05T10:28:25;7.57;;;4.40;;
13795;SDS011;40911;51.552;9.874;2023-04-05T10:30:51;7.85;;;4.40;;
13795;SDS011;40911;51.552;9.874;2023-04-05T10:33:19;5.97;;;4.32;;
13795;SDS011;40911;51.552;9.874;2023-04-05T10:35:44;6.30;;;4.22;;
13795;SDS011;40911;51.552;9.874;2023-04-05T10:38:19;4.93;;;4.47;;
13795;SDS011;40911;51.552;9.874;2023-04-05T10:40:45;6.25;;;4.50;;
13795;SDS011;40911;51.552;9.874;2023-04-05T10:43:09;4.97;;;4.47;;
13795;SDS011;40911;51.552;9.874;2023-04-05T10:45:36;4.93;;;4.30;;
13795;SDS011;40911;51.552;9.874;2023-04-05T10:48:01;4.35;;;3.75;;
13795;SDS011;40911;51.552;9.874;2023-04-05T10:50:32;7.95;;;4.65;;
13795;SDS011;40911;51.552;9.874;2023-04-05T10:52:55;5.88;;;4.20;;
13795;SDS011;40911;51.552;9.874;2023-04-05T10:55:21;4.68;;;4.20;;
13795;SDS011;40911;51.552;9.874;2023-04-05T10:57:43;4.90;;;4.30;;
13795;SDS011;40911;51.552;9.874;2023-04-05T11:00:06;6.57;;;4.45;;
13795;SDS011;40911;51.552;9.874;2023-04-05T11:02:30;7.05;;;5.07;;
13795;SDS011;40911;51.552;9.874;2023-04-05T11:04:52;4.85;;;4.38;;
13795;SDS011;40911;51.552;9.874;2023-04-05T11:07:16;5.32;;;4.22;;
13795;SDS011;40911;51.552;9.874;2023-04-05T11:09:39;4.07;;;3.67;;
13795;SDS011;40911;51.552;9.874;2023-04-05T11:12:12;7.53;;;4.65;;
13795;SDS011;40911;51.552;9.874;2023-04-05T11:14:36;4.82;;;3.58;;
13795;SDS011;40911;51.552;9.874;2023-04-05T11:17:00;4.57;;;3.88;;
13795;SDS011;40911;51.552;9.874;2023-04-05T11:22:13;4.63;;;4.15;;
13795;SDS011;40911;51.552;9.874;2023-04-05T11:24:48;6.57;;;4.18;;
13795;SDS011;40911;51.552;9.874;2023-04-05T11:27:24;4.32;;;3.92;;
13795;SDS011;40911;51.552;9.874;2023-04-05T11:29:47;5.50;;;4.20;;
13795;SDS011;40911;51.552;9.874;2023-04-05T11:32:10;5.55;;;4.22;;
13795;SDS011;40911;51.552;9.874;2023-04-05T11:34:34;4.80;;;4.30;;
13795;SDS011;40911;51.552;9.874;2023-04-05T11:36:56;4.28;;;3.85;;
13795;SDS011;40911;51.552;9.874;2023-04-05T11:39:21;5.68;;;4.18;;
13795;SDS011;40911;51.552;9.874;2023-04-05T11:41:52;4.32;;;3.95;;
13795;SDS011;40911;51.552;9.874;2023-04-05T11:44:23;4.28;;;3.95;;
13795;SDS011;40911;51.552;9.874;2023-04-05T11:46:45;6.28;;;3.75;;
13795;SDS011;40911;51.552;9.874;2023-04-05T11:49:07;5.43;;;4.35;;
13795;SDS011;40911;51.552;9.874;2023-04-05T11:56:12;4.78;;;4.20;;
13795;SDS011;40911;51.552;9.874;2023-04-05T11:58:35;4.85;;;3.92;;
13795;SDS011;40911;51.552;9.874;2023-04-05T12:00:59;4.70;;;4.18;;
13795;SDS011;40911;51.552;9.874;2023-04-05T12:03:22;6.07;;;4.35;;
13795;SDS011;40911;51.552;9.874;2023-04-05T12:05:45;5.85;;;3.80;;
13795;SDS011;40911;51.552;9.874;2023-04-05T12:08:08;5.15;;;3.90;;
13795;SDS011;40911;51.552;9.874;2023-04-05T12:10:29;6.30;;;3.72;;
13795;SDS011;40911;51.552;9.874;2023-04-05T12:12:51;5.20;;;3.90;;
13795;SDS011;40911;51.552;9.874;2023-04-05T12:15:14;6.38;;;3.90;;
13795;SDS011;40911;51.552;9.874;2023-04-05T12:17:42;5.63;;;3.92;;
13795;SDS011;40911;51.552;9.874;2023-04-05T12:20:06;6.88;;;4.03;;
13795;SDS011;40911;51.552;9.874;2023-04-05T12:22:28;4.55;;;3.70;;
13795;SDS011;40911;51.552;9.874;2023-04-05T12:27:12;4.40;;;4.00;;
13795;SDS011;40911;51.552;9.874;2023-04-05T12:31:55;4.25;;;3.85;;
13795;SDS011;40911;51.552;9.874;2023-04-05T12:34:23;5.45;;;3.58;;
13795;SDS011;40911;51.552;9.874;2023-04-05T12:36:46;4.63;;;3.88;;
13795;SDS011;40911;51.552;9.874;2023-04-05T12:39:08;5.55;;;4.10;;
13795;SDS011;40911;51.552;9.874;2023-04-05T12:41:30;4.63;;;3.92;;
13795;SDS011;40911;51.552;9.874;2023-04-05T12:43:53;4.85;;;3.90;;
13795;SDS011;40911;51.552;9.874;2023-04-05T12:46:19;4.97;;;4.07;;
13795;SDS011;40911;51.552;9.874;2023-04-05T12:48:40;5.82;;;4.30;;
13795;SDS011;40911;51.552;9.874;2023-04-05T12:53:33;4.95;;;4.10;;
13795;SDS011;40911;51.552;9.874;2023-04-05T12:55:55;6.45;;;4.30;;
13795;SDS011;40911;51.552;9.874;2023-04-05T12:58:18;4.82;;;4.05;;
13795;SDS011;40911;51.552;9.874;2023-04-05T13:00:40;5.45;;;4.53;;
13795;SDS011;40911;51.552;9.874;2023-04-05T13:03:02;5.28;;;4.20;;
13795;SDS011;40911;51.552;9.874;2023-04-05T13:07:47;4.78;;;3.63;;
13795;SDS011;40911;51.552;9.874;2023-04-05T13:10:10;7.15;;;4.15;;
13795;SDS011;40911;51.552;9.874;2023-04-05T13:14:53;4.97;;;4.40;;
13795;SDS011;40911;51.552;9.874;2023-04-05T13:19:36;6.78;;;4.07;;
13795;SDS011;40911;51.552;9.874;2023-04-05T13:21:57;5.90;;;4.50;;
13795;SDS011;40911;51.552;9.874;2023-04-05T13:24:20;4.78;;;4.20;;
13795;SDS011;40911;51.552;9.874;2023-04-05T13:26:42;4.78;;;4.25;;
13795;SDS011;40911;51.552;9.874;2023-04-05T13:29:03;4.72;;;4.30;;
13795;SDS011;40911;51.552;9.874;2023-04-05T13:31:25;4.50;;;4.10;;
13795;SDS011;40911;51.552;9.874;2023-04-05T13:33:47;5.40;;;4.30;;
13795;SDS011;40911;51.552;9.874;2023-04-05T13:36:09;7.32;;;4.53;;
13795;SDS011;40911;51.552;9.874;2023-04-05T13:38:31;4.65;;;4.10;;
13795;SDS011;40911;51.552;9.874;2023-04-05T13:40:54;6.80;;;4.78;;
13795;SDS011;40911;51.552;9.874;2023-04-05T13:43:15;5.07;;;3.90;;
13795;SDS011;40911;51.552;9.874;2023-04-05T13:45:37;4.85;;;4.30;;
13795;SDS011;40911;51.552;9.874;2023-04-05T13:47:59;4.80;;;4.20;;
13795;SDS011;40911;51.552;9.874;2023-04-05T13:50:21;4.90;;;4.40;;
13795;SDS011;40911;51.552;9.874;2023-04-05T13:52:43;4.55;;;4.15;;
13795;SDS011;40911;51.552;9.874;2023-04-05T13:55:05;5.82;;;4.10;;
13795;SDS011;40911;51.552;9.874;2023-04-05T13:57:29;5.28;;;4.10;;
13795;SDS011;40911;51.552;9.874;2023-04-05T13:59:50;9.15;;;4.72;;
13795;SDS011;40911;51.552;9.874;2023-04-05T14:02:12;5.88;;;4.05;;
13795;SDS011;40911;51.552;9.874;2023-04-05T14:04:34;5.80;;;4.28;;
13795;SDS011;40911;51.552;9.874;2023-04-05T14:06:55;4.40;;;4.00;;
13795;SDS011;40911;51.552;9.874;2023-04-05T14:09:17;6.55;;;4.38;;
13795;SDS011;40911;51.552;9.874;2023-04-05T14:11:39;6.93;;;4.70;;
13795;SDS011;40911;51.552;9.874;2023-04-05T14:14:02;6.30;;;4.25;;
13795;SDS011;40911;51.552;9.874;2023-04-05T14:16:23;7.38;;;4.22;;
13795;SDS011;40911;51.552;9.874;2023-04-05T14:18:45;4.97;;;4.47;;
13795;SDS011;40911;51.552;9.874;2023-04-05T14:21:07;4.57;;;4.18;;
13795;SDS011;40911;51.552;9.874;2023-04-05T14:23:28;7.57;;;4.68;;
13795;SDS011;40911;51.552;9.874;2023-04-05T14:25:50;5.00;;;4.13;;
13795;SDS011;40911;51.552;9.874;2023-04-05T14:28:11;4.22;;;3.90;;
13795;SDS011;40911;51.552;9.874;2023-04-05T14:30:34;8.30;;;4.53;;
13795;SDS011;40911;51.552;9.874;2023-04-05T14:32:56;4.95;;;4.45;;
13795;SDS011;40911;51.552;9.874;2023-04-05T14:35:18;6.40;;;4.35;;
13795;SDS011;40911;51.552;9.874;2023-04-05T14:37:39;4.65;;;3.95;;
13795;SDS011;40911;51.552;9.874;2023-04-05T14:40:01;6.45;;;4.47;;
13795;SDS011;40911;51.552;9.874;2023-04-05T14:42:22;8.38;;;4.40;;
13795;SDS011;40911;51.552;9.874;2023-04-05T14:47:07;4.85;;;4.40;;
13795;SDS011;40911;51.552;9.874;2023-04-05T14:49:28;7.20;;;4.70;;
13795;SDS011;40911;51.552;9.874;2023-04-05T14:51:50;5.35;;;4.10;;
13795;SDS011;40911;51.552;9.874;2023-04-05T14:54:12;5.18;;;3.95;;
13795;SDS011;40911;51.552;9.874;2023-04-05T14:56:33;4.88;;;3.90;;
13795;SDS011;40911;51.552;9.874;2023-04-05T14:58:55;4.72;;;4.13;;
13795;SDS011;40911;51.552;9.874;2023-04-05T15:01:17;5.68;;;4.30;;
13795;SDS011;40911;51.552;9.874;2023-04-05T15:06:02;5.10;;;4.15;;
13795;SDS011;40911;51.552;9.874;2023-04-05T15:08:24;6.13;;;3.95;;
13795;SDS011;40911;51.552;9.874;2023-04-05T15:10:45;7.57;;;4.10;;
13795;SDS011;40911;51.552;9.874;2023-04-05T15:15:29;5.55;;;4.15;;
13795;SDS011;40911;51.552;9.874;2023-04-05T15:17:51;5.30;;;3.78;;
13795;SDS011;40911;51.552;9.874;2023-04-05T15:20:14;5.85;;;4.03;;
13795;SDS011;40911;51.552;9.874;2023-04-05T15:22:36;5.97;;;4.15;;
13795;SDS011;40911;51.552;9.874;2023-04-05T15:24:59;6.40;;;4.45;;
13795;SDS011;40911;51.552;9.874;2023-04-05T15:27:21;6.43;;;4.20;;
13795;SDS011;40911;51.552;9.874;2023-04-05T15:29:43;4.55;;;3.90;;